createdAt,value
2022-12-18T00:01:34.947Z,-8.93
2022-12-18T00:04:06.669Z,-8.81
2022-12-18T00:06:33.826Z,-8.68
2022-12-18T00:09:01.826Z,-8.58
2022-12-18T00:11:30.537Z,-8.72
2022-12-18T00:13:58.710Z,-8.57
2022-12-18T00:16:27.659Z,-8.76
2022-12-18T00:18:56.602Z,-8.59
2022-12-18T00:21:23.363Z,-8.55
2022-12-18T00:23:53.031Z,-8.57
2022-12-18T00:26:31.283Z,-8.63
2022-12-18T00:29:08.022Z,-8.78
2022-12-18T00:31:35.484Z,-8.73
2022-12-18T00:34:02.585Z,-8.56
2022-12-18T00:36:32.471Z,-8.52
2022-12-18T00:39:00.342Z,-8.63
2022-12-18T00:41:46.517Z,-8.72
2022-12-18T00:44:15.406Z,-8.67
2022-12-18T00:46:43.551Z,-8.62
2022-12-18T00:49:10.797Z,-8.77
2022-12-18T00:51:37.536Z,-8.67
2022-12-18T00:54:03.940Z,-8.48
2022-12-18T00:56:30.815Z,-8.52
2022-12-18T00:58:57.114Z,-8.49
2022-12-18T01:01:23.832Z,-8.52
2022-12-18T01:03:50.804Z,-8.37
2022-12-18T01:06:17.736Z,-8.28
2022-12-18T01:08:44.793Z,-8.47
2022-12-18T01:11:14.350Z,-8.44
2022-12-18T01:13:41.785Z,-8.69
2022-12-18T01:16:09.681Z,-8.71
2022-12-18T01:18:37.047Z,-8.37
2022-12-18T01:21:08.569Z,-8.45
2022-12-18T01:23:35.145Z,-8.46
2022-12-18T01:26:09.759Z,-8.30
2022-12-18T01:28:36.750Z,-8.41
2022-12-18T01:31:15.778Z,-8.35
2022-12-18T01:33:42.269Z,-8.29
2022-12-18T01:36:10.217Z,-8.28
2022-12-18T01:38:36.642Z,-8.25
2022-12-18T01:41:03.557Z,-8.26
2022-12-18T01:43:59.154Z,-8.22
2022-12-18T01:46:27.541Z,-8.20
2022-12-18T01:49:03.487Z,-7.92
2022-12-18T01:51:31.529Z,-8.17
2022-12-18T01:53:58.851Z,-8.23
2022-12-18T01:56:25.533Z,-8.30
2022-12-18T01:59:01.938Z,-8.26
2022-12-18T02:01:30.819Z,-8.16
2022-12-18T02:03:57.445Z,-8.09
2022-12-18T02:06:44.442Z,-8.09
2022-12-18T02:09:19.165Z,-8.06
2022-12-18T02:12:19.226Z,-7.98
2022-12-18T02:14:56.100Z,-7.91
2022-12-18T02:17:30.433Z,-7.87
2022-12-18T02:20:29.116Z,-7.92
2022-12-18T02:23:19.789Z,-8.25
2022-12-18T02:26:07.889Z,-8.20
2022-12-18T02:28:42.522Z,-8.15
2022-12-18T02:31:12.601Z,-8.18
2022-12-18T02:33:41.787Z,-8.39
2022-12-18T02:36:10.646Z,-8.34
2022-12-18T02:38:37.721Z,-8.29
2022-12-18T02:41:06.081Z,-8.06
2022-12-18T02:43:32.651Z,-8.03
2022-12-18T02:46:01.451Z,-7.99
2022-12-18T02:48:34.811Z,-7.86
2022-12-18T02:51:13.986Z,-8.23
2022-12-18T02:53:56.326Z,-8.27
2022-12-18T02:56:31.534Z,-8.22
2022-12-18T02:59:07.556Z,-8.46
2022-12-18T03:01:47.839Z,-8.71
2022-12-18T03:04:17.964Z,-8.52
2022-12-18T03:06:49.500Z,-8.46
2022-12-18T03:09:22.443Z,-8.62
2022-12-18T03:12:15.674Z,-8.49
2022-12-18T03:14:44.926Z,-8.84
2022-12-18T03:17:15.664Z,-8.86
2022-12-18T03:19:44.848Z,-8.57
2022-12-18T03:22:11.772Z,-8.75
2022-12-18T03:24:40.426Z,-8.59
2022-12-18T03:27:12.369Z,-8.64
2022-12-18T03:29:43.558Z,-8.60
2022-12-18T03:32:18.830Z,-8.68
2022-12-18T03:34:49.090Z,-8.67
2022-12-18T03:37:15.622Z,-8.75
2022-12-18T03:39:42.633Z,-8.68
2022-12-18T03:42:28.032Z,-8.49
2022-12-18T03:44:54.653Z,-8.51
2022-12-18T03:47:43.743Z,-8.34
2022-12-18T03:50:24.336Z,-8.54
2022-12-18T03:52:58.563Z,-8.49
2022-12-18T03:55:27.263Z,-8.18
2022-12-18T03:57:55.163Z,-8.37
2022-12-18T04:00:22.038Z,-8.20
2022-12-18T04:02:52.991Z,-8.20
2022-12-18T04:05:21.509Z,-8.08
2022-12-18T04:07:50.335Z,-8.09
2022-12-18T04:10:17.926Z,-8.07
2022-12-18T04:12:44.241Z,-8.06
2022-12-18T04:15:12.570Z,-7.95
2022-12-18T04:17:42.577Z,-7.76
2022-12-18T04:20:09.451Z,-7.76
2022-12-18T04:22:36.426Z,-7.85
2022-12-18T04:25:03.156Z,-8.00
2022-12-18T04:27:30.230Z,-8.06
2022-12-18T04:29:56.546Z,-7.98
2022-12-18T04:32:23.253Z,-7.89
2022-12-18T04:34:49.652Z,-8.03
2022-12-18T04:37:16.011Z,-7.76
2022-12-18T04:39:42.660Z,-7.47
2022-12-18T04:42:08.989Z,-7.54
2022-12-18T04:44:35.706Z,-7.47
2022-12-18T04:47:02.633Z,-7.52
2022-12-18T04:49:28.971Z,-7.52
2022-12-18T04:51:55.350Z,-7.60
2022-12-18T04:54:22.545Z,-7.77
2022-12-18T04:56:48.892Z,-7.85
2022-12-18T04:59:15.213Z,-7.36
2022-12-18T05:01:42.154Z,-7.42
2022-12-18T05:04:08.758Z,-7.31
2022-12-18T05:06:35.139Z,-7.30
2022-12-18T05:09:02.013Z,-7.36
2022-12-18T05:11:28.338Z,-7.10
2022-12-18T05:13:57.558Z,-7.21
2022-12-18T05:16:24.394Z,-7.19
2022-12-18T05:18:50.822Z,-7.09
2022-12-18T05:21:17.145Z,-7.44
2022-12-18T05:23:44.164Z,-7.30
2022-12-18T05:26:17.738Z,-7.17
2022-12-18T05:28:44.887Z,-7.04
2022-12-18T05:31:11.422Z,-7.11
2022-12-18T05:33:38.473Z,-7.25
2022-12-18T05:36:08.171Z,-7.21
2022-12-18T05:38:36.719Z,-7.26
2022-12-18T05:41:04.580Z,-7.17
2022-12-18T05:43:30.927Z,-7.14
2022-12-18T05:45:58.355Z,-7.24
2022-12-18T05:48:24.734Z,-7.21
2022-12-18T05:50:51.684Z,-7.06
2022-12-18T05:53:20.250Z,-6.99
2022-12-18T05:55:47.703Z,-7.01
2022-12-18T05:58:15.621Z,-7.03
2022-12-18T06:00:44.875Z,-7.03
2022-12-18T06:03:12.804Z,-6.86
2022-12-18T06:05:42.086Z,-6.92
2022-12-18T06:08:08.718Z,-6.79
2022-12-18T06:10:35.245Z,-6.92
2022-12-18T06:13:02.349Z,-6.95
2022-12-18T06:15:28.817Z,-7.19
2022-12-18T06:17:55.182Z,-6.98
2022-12-18T06:20:22.266Z,-7.04
2022-12-18T06:22:48.766Z,-6.94
2022-12-18T06:25:16.338Z,-6.97
2022-12-18T06:27:43.213Z,-6.75
2022-12-18T06:30:11.219Z,-6.48
2022-12-18T06:32:37.565Z,-6.73
2022-12-18T06:35:05.117Z,-6.78
2022-12-18T06:37:32.372Z,-6.78
2022-12-18T06:39:59.093Z,-7.02
2022-12-18T06:42:25.996Z,-6.85
2022-12-18T06:44:52.837Z,-6.66
2022-12-18T06:47:19.526Z,-6.73
2022-12-18T06:49:46.421Z,-6.83
2022-12-18T06:52:12.870Z,-6.76
2022-12-18T06:54:39.222Z,-6.68
2022-12-18T06:57:05.877Z,-6.66
2022-12-18T06:59:32.282Z,-6.58
2022-12-18T07:01:58.686Z,-6.78
2022-12-18T07:04:32.744Z,-6.57
2022-12-18T07:06:59.091Z,-6.59
2022-12-18T07:09:26.193Z,-6.69
2022-12-18T07:11:53.594Z,-6.59
2022-12-18T07:14:20.108Z,-6.58
2022-12-18T07:16:46.455Z,-6.58
2022-12-18T07:19:13.366Z,-6.69
2022-12-18T07:21:39.689Z,-6.74
2022-12-18T07:24:06.787Z,-6.56
2022-12-18T07:26:33.580Z,-6.43
2022-12-18T07:28:59.940Z,-6.48
2022-12-18T07:31:26.943Z,-6.53
2022-12-18T07:33:54.057Z,-6.46
2022-12-18T07:36:20.906Z,-6.38
2022-12-18T07:38:51.080Z,-6.50
2022-12-18T07:41:18.080Z,-6.56
2022-12-18T07:43:44.815Z,-6.50
2022-12-18T07:46:13.639Z,-6.60
2022-12-18T07:48:41.724Z,-6.53
2022-12-18T07:51:09.092Z,-6.38
2022-12-18T07:53:37.510Z,-6.39
2022-12-18T07:58:54.515Z,-6.66
2022-12-18T08:01:21.368Z,-6.58
2022-12-18T08:03:48.083Z,-6.73
2022-12-18T08:06:14.621Z,-6.20
2022-12-18T08:08:42.730Z,-6.48
2022-12-18T08:11:09.094Z,-6.48
2022-12-18T08:13:35.434Z,-6.53
2022-12-18T08:16:08.175Z,-6.28
2022-12-18T08:18:36.800Z,-6.20
2022-12-18T08:21:31.759Z,-6.06
2022-12-18T08:24:00.377Z,-6.13
2022-12-18T08:26:29.925Z,-6.15
2022-12-18T08:28:58.052Z,-6.29
2022-12-18T08:31:26.509Z,-6.30
2022-12-18T08:33:54.510Z,-6.26
2022-12-18T08:36:23.231Z,-6.07
2022-12-18T08:38:51.179Z,-6.01
2022-12-18T08:41:18.999Z,-5.99
2022-12-18T08:44:04.376Z,-5.79
2022-12-18T08:46:38.133Z,-5.67
2022-12-18T08:49:05.301Z,-5.31
2022-12-18T08:51:31.823Z,-5.59
2022-12-18T08:53:58.623Z,-5.77
2022-12-18T08:56:25.331Z,-5.22
2022-12-18T08:58:54.142Z,-5.21
2022-12-18T09:01:21.212Z,-5.61
2022-12-18T09:03:48.099Z,-5.81
2022-12-18T09:06:17.002Z,-5.81
2022-12-18T09:08:44.783Z,-5.65
2022-12-18T09:11:21.912Z,-5.23
2022-12-18T09:13:48.392Z,-5.63
2022-12-18T09:16:16.231Z,-5.47
2022-12-18T09:18:43.204Z,-5.51
2022-12-18T09:21:14.881Z,-5.06
2022-12-18T09:23:42.219Z,-5.28
2022-12-18T09:26:08.769Z,-5.32
2022-12-18T09:28:35.309Z,-5.00
2022-12-18T09:31:07.927Z,-5.29
2022-12-18T09:33:38.049Z,-5.13
2022-12-18T09:36:08.406Z,-5.19
2022-12-18T09:38:35.732Z,-5.24
2022-12-18T09:41:24.112Z,-5.16
2022-12-18T09:43:54.886Z,-5.29
2022-12-18T09:46:35.860Z,-5.31
2022-12-18T09:49:06.854Z,-5.17
2022-12-18T09:51:39.789Z,-5.41
2022-12-18T09:54:13.370Z,-5.34
2022-12-18T09:56:43.715Z,-5.21
2022-12-18T09:59:20.464Z,-5.62
2022-12-18T10:01:47.504Z,-5.45
2022-12-18T10:04:13.985Z,-5.78
2022-12-18T10:07:07.274Z,-5.67
2022-12-18T10:09:39.467Z,-5.76
2022-12-18T10:12:26.498Z,-5.33
2022-12-18T10:15:15.739Z,-5.32
2022-12-18T10:18:02.594Z,-5.69
2022-12-18T10:20:44.728Z,-5.46
2022-12-18T10:23:27.390Z,-5.29
2022-12-18T10:26:02.947Z,-5.35
2022-12-18T10:28:32.125Z,-5.47
2022-12-18T10:30:59.415Z,-5.39
2022-12-18T10:33:30.466Z,-5.03
2022-12-18T10:35:57.221Z,-4.99
2022-12-18T10:38:32.578Z,-4.46
2022-12-18T10:41:10.460Z,-4.44
2022-12-18T10:43:40.952Z,-4.74
2022-12-18T10:46:10.152Z,-4.99
2022-12-18T10:48:48.915Z,-4.46
2022-12-18T10:51:37.105Z,-5.11
2022-12-18T10:54:06.290Z,-4.74
2022-12-18T10:56:37.135Z,-4.37
2022-12-18T10:59:07.319Z,-4.45
2022-12-18T11:01:49.780Z,-5.10
2022-12-18T11:04:28.322Z,-5.39
2022-12-18T11:07:04.114Z,-6.05
2022-12-18T11:09:39.394Z,-5.81
2022-12-18T11:12:17.698Z,-5.47
2022-12-18T11:14:48.578Z,-5.51
2022-12-18T11:17:36.438Z,-5.25
2022-12-18T11:20:10.902Z,-5.12
2022-12-18T11:22:39.074Z,-4.92
2022-12-18T11:25:35.793Z,-5.37
2022-12-18T11:28:05.544Z,-4.92
2022-12-18T11:30:31.994Z,-4.82
2022-12-18T11:33:11.158Z,-4.98
2022-12-18T11:35:56.514Z,-5.38
2022-12-18T11:38:24.964Z,-5.02
2022-12-18T11:41:06.558Z,-4.74
2022-12-18T11:43:39.770Z,-4.21
2022-12-18T11:46:20.168Z,-4.48
2022-12-18T11:49:07.152Z,-4.59
2022-12-18T11:51:38.761Z,-4.48
2022-12-18T11:54:15.021Z,-4.62
2022-12-18T11:56:49.667Z,-4.74
2022-12-18T11:59:28.326Z,-4.47
2022-12-18T12:02:00.318Z,-5.55
2022-12-18T12:04:40.121Z,-5.75
2022-12-18T12:07:42.909Z,-5.71
2022-12-18T12:10:35.334Z,-5.74
2022-12-18T12:13:39.688Z,-6.06
2022-12-18T12:16:27.752Z,-5.92
2022-12-18T12:19:05.849Z,-5.82
2022-12-18T12:21:55.238Z,-5.87
2022-12-18T12:24:37.213Z,-5.91
2022-12-18T12:27:12.842Z,-5.50
2022-12-18T12:30:28.826Z,-5.31
2022-12-18T12:33:14.149Z,-5.41
2022-12-18T12:35:59.630Z,-4.86
2022-12-18T12:38:33.259Z,-4.62
2022-12-18T12:41:06.162Z,-4.94
2022-12-18T12:43:50.801Z,-5.06
2022-12-18T12:46:22.364Z,-4.83
2022-12-18T12:49:00.537Z,-4.25
2022-12-18T12:51:32.878Z,-4.68
2022-12-18T12:54:02.847Z,-4.55
2022-12-18T12:56:55.322Z,-4.80
2022-12-18T12:59:37.118Z,-5.52
2022-12-18T13:02:20.794Z,-5.77
2022-12-18T13:04:52.304Z,-5.33
2022-12-18T13:07:27.984Z,-5.48
2022-12-18T13:10:19.041Z,-5.39
2022-12-18T13:13:17.298Z,-5.46
2022-12-18T13:15:46.183Z,-4.98
2022-12-18T13:18:15.361Z,-5.58
2022-12-18T13:20:55.269Z,-5.68
2022-12-18T13:23:24.718Z,-5.11
2022-12-18T13:26:12.983Z,-4.89
2022-12-18T13:28:45.909Z,-4.77
2022-12-18T13:31:31.169Z,-5.29
2022-12-18T13:34:29.521Z,-5.83
2022-12-18T13:37:18.043Z,-5.85
2022-12-18T13:39:44.556Z,-5.51
2022-12-18T13:42:33.180Z,-5.58
2022-12-18T13:45:00.399Z,-5.22
2022-12-18T13:47:39.200Z,-5.21
2022-12-18T13:50:24.605Z,-5.20
2022-12-18T13:52:51.900Z,-5.52
2022-12-18T13:55:20.480Z,-5.92
2022-12-18T13:57:47.915Z,-5.91
2022-12-18T14:00:23.520Z,-5.89
2022-12-18T14:02:51.423Z,-6.05
2022-12-18T14:05:33.079Z,-5.93
2022-12-18T14:08:12.295Z,-5.82
2022-12-18T14:10:48.505Z,-5.71
2022-12-18T14:13:31.823Z,-5.72
2022-12-18T14:16:01.782Z,-5.77
2022-12-18T14:18:46.170Z,-5.72
2022-12-18T14:21:21.567Z,-5.57
2022-12-18T14:23:47.975Z,-5.61
2022-12-18T14:26:30.208Z,-6.00
2022-12-18T14:28:58.503Z,-5.99
2022-12-18T14:31:32.972Z,-6.01
2022-12-18T14:33:59.318Z,-5.59
2022-12-18T14:36:29.305Z,-5.71
2022-12-18T14:38:58.144Z,-5.75
2022-12-18T14:41:25.724Z,-5.92
2022-12-18T14:43:54.698Z,-5.93
2022-12-18T14:46:34.258Z,-6.03
2022-12-18T14:49:05.119Z,-6.02
2022-12-18T14:51:34.633Z,-6.12
2022-12-18T14:54:04.037Z,-5.89
2022-12-18T14:56:33.096Z,-5.90
2022-12-18T14:59:05.816Z,-5.91
2022-12-18T15:01:34.830Z,-5.99
2022-12-18T15:04:02.725Z,-5.91
2022-12-18T15:06:41.290Z,-5.92
2022-12-18T15:09:24.874Z,-6.00
2022-12-18T15:11:58.529Z,-6.02
2022-12-18T15:14:31.498Z,-5.98
2022-12-18T15:17:00.045Z,-6.09
2022-12-18T15:19:40.748Z,-6.10
2022-12-18T15:22:34.719Z,-6.09
2022-12-18T15:25:02.330Z,-6.09
2022-12-18T15:27:30.816Z,-6.31
2022-12-18T15:30:09.270Z,-6.41
2022-12-18T15:32:38.041Z,-6.16
2022-12-18T15:35:11.014Z,-5.89
2022-12-18T15:37:38.358Z,-5.88
2022-12-18T15:40:07.087Z,-6.03
2022-12-18T15:42:52.283Z,-6.04
2022-12-18T15:45:19.632Z,-6.01
2022-12-18T15:47:46.390Z,-5.67
2022-12-18T15:50:12.775Z,-5.66
2022-12-18T15:52:45.209Z,-5.58
2022-12-18T15:55:32.365Z,-5.82
2022-12-18T15:57:58.960Z,-5.83
2022-12-18T16:00:26.130Z,-5.89
2022-12-18T16:02:52.710Z,-5.90
2022-12-18T16:05:21.613Z,-5.88
2022-12-18T16:07:48.663Z,-6.01
2022-12-18T16:10:15.579Z,-6.08
2022-12-18T16:12:42.910Z,-5.84
2022-12-18T16:15:14.339Z,-5.99
2022-12-18T16:17:41.809Z,-6.22
2022-12-18T16:20:19.721Z,-5.90
2022-12-18T16:22:47.237Z,-5.95
2022-12-18T16:25:21.425Z,-6.12
2022-12-18T16:27:48.799Z,-6.00
2022-12-18T16:30:18.721Z,-5.69
2022-12-18T16:32:45.131Z,-5.86
2022-12-18T16:35:13.571Z,-5.86
2022-12-18T16:37:42.052Z,-6.03
2022-12-18T16:40:11.457Z,-6.14
2022-12-18T16:42:40.100Z,-6.21
2022-12-18T16:45:08.567Z,-6.38
2022-12-18T16:47:35.361Z,-6.39
2022-12-18T16:50:02.119Z,-6.50
2022-12-18T16:52:28.975Z,-6.52
2022-12-18T16:54:55.272Z,-6.46
2022-12-18T16:57:24.679Z,-6.39
2022-12-18T16:59:52.751Z,-6.50
2022-12-18T17:02:24.672Z,-6.49
2022-12-18T17:04:55.152Z,-6.25
2022-12-18T17:07:21.645Z,-6.24
2022-12-18T17:09:48.717Z,-6.19
2022-12-18T17:12:15.150Z,-5.99
2022-12-18T17:14:41.465Z,-5.81
2022-12-18T17:17:20.754Z,-5.99
2022-12-18T17:19:48.375Z,-6.06
2022-12-18T17:22:14.748Z,-6.01
2022-12-18T17:24:41.066Z,-5.83
2022-12-18T17:27:09.106Z,-5.94
2022-12-18T17:29:35.673Z,-5.96
2022-12-18T17:32:02.043Z,-6.04
2022-12-18T17:34:29.934Z,-5.89
2022-12-18T17:36:57.127Z,-5.80
2022-12-18T17:39:23.526Z,-5.87
2022-12-18T17:41:50.938Z,-5.93
2022-12-18T17:44:17.600Z,-6.08
2022-12-18T17:46:44.580Z,-6.16
2022-12-18T17:49:12.125Z,-6.26
2022-12-18T17:51:38.964Z,-6.35
2022-12-18T17:54:05.723Z,-6.41
2022-12-18T17:56:33.166Z,-6.56
2022-12-18T17:59:00.158Z,-6.44
2022-12-18T18:01:26.705Z,-6.39
2022-12-18T18:03:56.425Z,-6.17
2022-12-18T18:06:23.856Z,-6.40
2022-12-18T18:08:50.603Z,-6.44
2022-12-18T18:11:58.836Z,-6.55
2022-12-18T18:14:26.907Z,-6.60
2022-12-18T18:16:54.168Z,-6.60
2022-12-18T18:19:24.210Z,-6.62
2022-12-18T18:21:53.150Z,-6.64
2022-12-18T18:24:23.291Z,-6.71
2022-12-18T18:26:50.620Z,-6.47
2022-12-18T18:29:20.843Z,-6.43
2022-12-18T18:31:48.368Z,-6.37
2022-12-18T18:34:18.029Z,-6.36
2022-12-18T18:36:46.549Z,-6.20
2022-12-18T18:39:13.952Z,-6.21
2022-12-18T18:41:40.581Z,-6.09
2022-12-18T18:44:10.652Z,-5.95
2022-12-18T18:46:37.026Z,-6.10
2022-12-18T18:49:03.910Z,-5.91
2022-12-18T18:51:34.857Z,-5.91
2022-12-18T18:54:01.743Z,-5.88
2022-12-18T18:59:15.671Z,-6.05
2022-12-18T19:01:42.645Z,-5.88
2022-12-18T19:04:09.212Z,-5.98
2022-12-18T19:06:35.735Z,-5.70
2022-12-18T19:09:05.206Z,-5.68
2022-12-18T19:11:50.138Z,-6.12
2022-12-18T19:14:17.489Z,-6.10
2022-12-18T19:16:45.384Z,-6.01
2022-12-18T19:19:13.106Z,-6.08
2022-12-18T19:21:40.841Z,-6.16
2022-12-18T19:24:07.694Z,-6.06
2022-12-18T19:26:35.886Z,-6.04
2022-12-18T19:29:08.270Z,-6.16
2022-12-18T19:31:36.895Z,-5.75
2022-12-18T19:34:07.754Z,-5.99
2022-12-18T19:36:36.453Z,-6.13
2022-12-18T19:39:12.707Z,-6.22
2022-12-18T19:41:39.600Z,-6.35
2022-12-18T19:44:08.290Z,-6.19
2022-12-18T19:46:35.493Z,-6.21
2022-12-18T19:49:02.279Z,-6.19
2022-12-18T19:51:30.659Z,-6.27
2022-12-18T19:54:01.430Z,-6.32
2022-12-18T19:56:31.084Z,-6.28
2022-12-18T19:58:57.944Z,-6.33
2022-12-18T20:01:25.835Z,-6.27
2022-12-18T20:03:55.072Z,-6.25
2022-12-18T20:06:32.444Z,-6.24
2022-12-18T20:09:01.822Z,-6.39
2022-12-18T20:11:33.327Z,-6.48
2022-12-18T20:14:03.255Z,-6.34
2022-12-18T20:16:29.835Z,-6.34
2022-12-18T20:18:58.104Z,-6.29
2022-12-18T20:21:25.390Z,-6.36
2022-12-18T20:23:52.058Z,-6.50
2022-12-18T20:26:19.650Z,-6.32
2022-12-18T20:28:46.066Z,-6.15
2022-12-18T20:31:13.685Z,-6.14
2022-12-18T20:33:41.604Z,-6.08
2022-12-18T20:36:13.350Z,-6.13
2022-12-18T20:38:40.873Z,-6.00
2022-12-18T20:41:16.591Z,-6.00
2022-12-18T20:43:44.109Z,-5.97
2022-12-18T20:46:12.952Z,-6.19
2022-12-18T20:48:40.942Z,-6.28
2022-12-18T20:51:18.449Z,-6.38
2022-12-18T20:53:46.241Z,-6.26
2022-12-18T20:56:21.129Z,-6.28
2022-12-18T20:58:49.700Z,-6.19
2022-12-18T21:01:19.205Z,-6.13
2022-12-18T21:03:47.030Z,-6.31
2022-12-18T21:06:15.696Z,-6.32
2022-12-18T21:08:43.177Z,-6.45
2022-12-18T21:11:35.929Z,-6.53
2022-12-18T21:14:04.089Z,-6.66
2022-12-18T21:16:30.798Z,-6.63
2022-12-18T21:18:58.203Z,-6.61
2022-12-18T21:21:26.936Z,-6.65
2022-12-18T21:23:53.810Z,-6.66
2022-12-18T21:26:23.421Z,-6.57
2022-12-18T21:28:55.362Z,-6.58
2022-12-18T21:31:24.215Z,-6.49
2022-12-18T21:33:51.063Z,-6.55
2022-12-18T21:36:22.362Z,-6.56
2022-12-18T21:38:48.772Z,-6.62
2022-12-18T21:41:41.956Z,-6.66
2022-12-18T21:44:12.247Z,-6.58
2022-12-18T21:46:41.079Z,-6.44
2022-12-18T21:49:09.029Z,-6.39
2022-12-18T21:51:36.428Z,-6.38
2022-12-18T21:54:02.825Z,-6.44
2022-12-18T21:56:49.714Z,-6.18
2022-12-18T21:59:25.267Z,-6.22
2022-12-18T22:01:53.185Z,-6.30
2022-12-18T22:04:20.472Z,-6.26
2022-12-18T22:06:48.909Z,-6.28
2022-12-18T22:09:18.238Z,-6.40
2022-12-18T22:11:44.909Z,-6.47
2022-12-18T22:14:12.121Z,-6.35
2022-12-18T22:16:38.478Z,-6.21
2022-12-18T22:19:06.881Z,-6.10
2022-12-18T22:21:35.437Z,-6.15
2022-12-18T22:24:12.544Z,-6.45
2022-12-18T22:26:40.287Z,-6.66
2022-12-18T22:29:26.416Z,-6.54
2022-12-18T22:31:52.765Z,-6.52
2022-12-18T22:34:22.853Z,-6.32
2022-12-18T22:36:51.129Z,-6.34
2022-12-18T22:39:20.468Z,-6.44
2022-12-18T22:41:48.028Z,-6.42
2022-12-18T22:44:15.717Z,-6.45
2022-12-18T22:46:49.415Z,-6.29
2022-12-18T22:49:34.734Z,-6.39
2022-12-18T22:52:02.193Z,-6.45
2022-12-18T22:54:28.545Z,-6.48
2022-12-18T22:56:55.924Z,-6.28
2022-12-18T22:59:23.264Z,-6.33
2022-12-18T23:01:51.290Z,-6.38
2022-12-18T23:04:23.871Z,-6.28
2022-12-18T23:06:52.382Z,-6.32
2022-12-18T23:09:20.271Z,-6.38
2022-12-18T23:11:47.673Z,-6.39
2022-12-18T23:14:14.910Z,-6.21
2022-12-18T23:16:41.264Z,-6.32
2022-12-18T23:19:09.134Z,-6.15
2022-12-18T23:21:35.607Z,-6.07
2022-12-18T23:24:02.022Z,-6.14
2022-12-18T23:26:28.979Z,-6.25
2022-12-18T23:28:56.681Z,-6.14
2022-12-18T23:31:27.210Z,-6.01
2022-12-18T23:33:56.713Z,-5.88
2022-12-18T23:36:24.022Z,-5.83
2022-12-18T23:38:55.302Z,-6.09
2022-12-18T23:41:25.151Z,-6.22
2022-12-18T23:43:52.392Z,-6.20
2022-12-18T23:46:27.799Z,-6.28
2022-12-18T23:49:01.121Z,-6.25
2022-12-18T23:51:29.171Z,-6.30
2022-12-18T23:53:58.085Z,-6.43
2022-12-18T23:56:25.590Z,-6.40
2022-12-18T23:58:53.019Z,-6.36
